Time;durP1;ratioP1;P1;durP2;ratioP2;P2;SDS_P1;SDS_P2;PMS_P1;PMS_P2;Temp;Humidity;BMP_temperature;BMP_pressure;BME280_temperature;BME280_humidity;BME280_pressure;Samples;Min_cycle;Max_cycle;Signal;HPM_P1;HPM_P2
2023/07/24 00:00:13;;;;;;;;;;;24.60;99.90;;;;;;5095583;28;19981;-62
2023/07/24 00:02:38;;;;;;;;;;;24.50;99.90;;;;;;5095414;28;19989;-63
2023/07/24 00:05:04;;;;;;;;;;;24.40;99.90;;;;;;5095585;28;19981;-63
2023/07/24 00:07:29;;;;;;;;;;;24.50;99.90;;;;;;5095477;28;20015;-65
2023/07/24 00:09:55;;;;;;;;;;;24.50;99.90;;;;;;5095366;28;19981;-62
2023/07/24 00:12:21;;;;;;;;;;;24.50;99.90;;;;;;5095226;28;20052;-64
2023/07/24 00:14:47;;;;;;;;;;;24.50;99.90;;;;;;5095442;28;20028;-64
2023/07/24 00:17:12;;;;;;;;;;;24.40;99.90;;;;;;5095238;28;20435;-63
2023/07/24 00:19:38;;;;;;;;;;;24.40;99.90;;;;;;5095247;28;20343;-64
2023/07/24 00:22:03;;;;;;;;;;;24.40;99.90;;;;;;5095230;28;20321;-64
2023/07/24 00:24:29;;;;;;;;;;;24.30;99.90;;;;;;5095190;28;19981;-61
2023/07/24 00:26:55;;;;;;;;;;;24.30;99.90;;;;;;5094843;28;19981;-64
2023/07/24 00:29:20;;;;;;;;;;;24.20;99.90;;;;;;5095070;28;20328;-65
2023/07/24 00:31:46;;;;;;;;;;;24.10;99.90;;;;;;5094976;28;20028;-63
2023/07/24 00:34:12;;;;;;;;;;;24.10;99.90;;;;;;5094831;28;20026;-62
2023/07/24 00:36:37;;;;;;;;;;;23.90;99.90;;;;;;5094975;28;20378;-64
2023/07/24 00:39:03;;;;;;;;;;;23.90;99.90;;;;;;5094959;28;19988;-63
2023/07/24 00:41:28;;;;;;;;;;;23.90;99.90;;;;;;5093784;28;20032;-63
2023/07/24 00:43:54;;;;;;;;;;;23.90;99.90;;;;;;5094931;28;20435;-62
2023/07/24 00:46:19;;;;;;;;;;;24.00;99.90;;;;;;5094623;28;20474;-64
2023/07/24 00:48:45;;;;;;;;;;;24.00;99.90;;;;;;5094660;28;20077;-62
2023/07/24 00:51:10;;;;;;;;;;;24.00;99.90;;;;;;5094604;28;20005;-63
2023/07/24 00:53:36;;;;;;;;;;;24.00;99.90;;;;;;5094923;28;19985;-64
2023/07/24 00:56:02;;;;;;;;;;;24.00;99.90;;;;;;5094412;28;19996;-63
2023/07/24 00:58:28;;;;;;;;;;;24.00;99.90;;;;;;5094355;28;20390;-63
2023/07/24 01:00:53;;;;;;;;;;;23.90;99.90;;;;;;5094790;28;20051;-64
2023/07/24 01:03:19;;;;;;;;;;;23.90;99.90;;;;;;5094450;28;20499;-64
2023/07/24 01:05:44;;;;;;;;;;;23.80;99.90;;;;;;5094343;28;19989;-63
2023/07/24 01:08:10;;;;;;;;;;;23.80;99.90;;;;;;5094471;28;19987;-63
2023/07/24 01:10:35;;;;;;;;;;;23.80;99.90;;;;;;5094019;28;20005;-62
2023/07/24 01:13:01;;;;;;;;;;;23.80;99.90;;;;;;5094177;28;19982;-64
2023/07/24 01:15:32;;;;;;;;;;;23.80;99.90;;;;;;5094263;28;19993;-63
2023/07/24 01:17:59;;;;;;;;;;;23.80;99.90;;;;;;5094455;28;19996;-63
2023/07/24 01:20:26;;;;;;;;;;;23.70;99.90;;;;;;5094068;28;20462;-65
2023/07/24 01:23:04;;;;;;;;;;;23.70;99.90;;;;;;5094228;28;20386;-64
2023/07/24 01:25:36;;;;;;;;;;;23.70;99.90;;;;;;5094265;28;19987;-63
2023/07/24 01:28:06;;;;;;;;;;;23.70;99.90;;;;;;5094182;28;19981;-64
2023/07/24 01:30:31;;;;;;;;;;;23.70;99.90;;;;;;5094012;28;20005;-64
2023/07/24 01:32:57;;;;;;;;;;;23.60;99.90;;;;;;5094153;28;20084;-62
2023/07/24 01:35:23;;;;;;;;;;;23.60;99.90;;;;;;5094125;28;19981;-65
2023/07/24 01:37:49;;;;;;;;;;;23.60;99.90;;;;;;5094008;28;20451;-63
2023/07/24 01:40:15;;;;;;;;;;;23.50;99.90;;;;;;5093860;28;20087;-64
2023/07/24 01:42:41;;;;;;;;;;;23.50;99.90;;;;;;5093787;28;20027;-64
2023/07/24 01:45:06;;;;;;;;;;;23.50;99.90;;;;;;5093666;28;20112;-64
2023/07/24 01:47:32;;;;;;;;;;;23.40;99.90;;;;;;5093882;28;19982;-63
2023/07/24 01:49:58;;;;;;;;;;;23.50;99.90;;;;;;5093682;28;19981;-64
2023/07/24 01:52:23;;;;;;;;;;;23.40;99.90;;;;;;5094056;28;20013;-63
2023/07/24 01:54:50;;;;;;;;;;;23.40;99.90;;;;;;5100578;28;19981;-63
2023/07/24 01:57:15;;;;;;;;;;;23.30;99.90;;;;;;5100576;28;20463;-63
2023/07/24 01:59:41;;;;;;;;;;;23.30;99.90;;;;;;5100586;28;20068;-62
2023/07/24 02:02:06;;;;;;;;;;;23.30;99.90;;;;;;5100452;28;19989;-63
2023/07/24 02:04:32;;;;;;;;;;;23.20;99.90;;;;;;5100372;28;20439;-64
2023/07/24 02:06:57;;;;;;;;;;;23.30;99.90;;;;;;5100247;28;20351;-62
2023/07/24 02:09:23;;;;;;;;;;;23.20;99.90;;;;;;5100417;28;20031;-62
2023/07/24 02:11:48;;;;;;;;;;;23.20;99.90;;;;;;5100268;28;20009;-62
2023/07/24 02:14:16;;;;;;;;;;;23.20;99.90;;;;;;5100259;28;19985;-63
2023/07/24 02:16:42;;;;;;;;;;;23.20;99.90;;;;;;5100309;28;19988;-64
2023/07/24 02:19:07;;;;;;;;;;;23.20;99.90;;;;;;5100344;28;19985;-63
2023/07/24 02:21:33;;;;;;;;;;;23.20;99.90;;;;;;5099999;28;19981;-65
2023/07/24 02:23:58;;;;;;;;;;;23.20;99.90;;;;;;5100258;28;19981;-64
2023/07/24 02:26:24;;;;;;;;;;;23.10;99.90;;;;;;5100162;28;20021;-64
2023/07/24 02:28:49;;;;;;;;;;;23.00;99.90;;;;;;5100170;28;19981;-63
2023/07/24 02:31:15;;;;;;;;;;;22.90;99.90;;;;;;5100110;28;20125;-63
2023/07/24 02:33:41;;;;;;;;;;;22.90;99.90;;;;;;5100214;28;20004;-63
2023/07/24 02:36:07;;;;;;;;;;;22.90;99.90;;;;;;5099864;28;20439;-62
2023/07/24 02:38:32;;;;;;;;;;;22.90;99.90;;;;;;5100166;28;20012;-64
2023/07/24 02:40:58;;;;;;;;;;;22.90;99.90;;;;;;5100141;28;20421;-62
2023/07/24 02:43:23;;;;;;;;;;;22.90;99.90;;;;;;5100147;28;19981;-64
2023/07/24 02:45:49;;;;;;;;;;;22.90;99.90;;;;;;5099759;28;20028;-63
2023/07/24 02:48:15;;;;;;;;;;;22.90;99.90;;;;;;5100151;28;19982;-64
2023/07/24 02:50:40;;;;;;;;;;;22.90;99.90;;;;;;5099793;28;20056;-63
2023/07/24 02:53:06;;;;;;;;;;;22.90;99.90;;;;;;5099932;28;19982;-64
2023/07/24 02:55:31;;;;;;;;;;;22.90;99.90;;;;;;5100032;28;20004;-63
2023/07/24 02:57:57;;;;;;;;;;;22.90;99.90;;;;;;5099953;28;20000;-63
2023/07/24 03:00:22;;;;;;;;;;;22.80;99.90;;;;;;5099883;28;19981;-64
2023/07/24 03:02:48;;;;;;;;;;;22.80;99.90;;;;;;5099920;28;19981;-64
2023/07/24 03:05:14;;;;;;;;;;;22.70;99.90;;;;;;5096985;28;19982;-63
2023/07/24 03:07:39;;;;;;;;;;;22.70;99.90;;;;;;5096586;28;20064;-64
2023/07/24 03:10:05;;;;;;;;;;;22.60;99.90;;;;;;5096580;28;19992;-64
2023/07/24 03:12:30;;;;;;;;;;;22.60;99.90;;;;;;5096525;28;20011;-64
2023/07/24 03:14:56;;;;;;;;;;;22.70;99.90;;;;;;5096572;28;20466;-64
2023/07/24 03:17:22;;;;;;;;;;;22.80;99.90;;;;;;5096396;28;19981;-63
2023/07/24 03:19:48;;;;;;;;;;;22.80;99.90;;;;;;5096413;28;20432;-65
2023/07/24 03:22:14;;;;;;;;;;;22.70;99.90;;;;;;5096500;28;19989;-63
2023/07/24 03:24:39;;;;;;;;;;;22.70;99.90;;;;;;5096235;28;19995;-62
2023/07/24 03:27:05;;;;;;;;;;;22.70;99.90;;;;;;5096584;28;20477;-63
2023/07/24 03:29:30;;;;;;;;;;;22.70;99.90;;;;;;5096394;28;20351;-64
2023/07/24 03:31:56;;;;;;;;;;;22.70;99.90;;;;;;5096085;28;20011;-64
2023/07/24 03:34:21;;;;;;;;;;;22.60;99.90;;;;;;5096112;28;19982;-65
2023/07/24 03:36:47;;;;;;;;;;;22.60;99.90;;;;;;5096141;28;19985;-64
2023/07/24 03:39:12;;;;;;;;;;;22.60;99.90;;;;;;5095984;28;19988;-63
2023/07/24 03:41:39;;;;;;;;;;;22.60;99.90;;;;;;5096289;28;19996;-64
2023/07/24 03:44:04;;;;;;;;;;;22.60;99.90;;;;;;5096318;28;19989;-63
2023/07/24 03:46:31;;;;;;;;;;;22.60;99.90;;;;;;5095734;28;20016;-65
2023/07/24 03:48:57;;;;;;;;;;;22.60;99.90;;;;;;5095644;28;20356;-64
2023/07/24 03:51:22;;;;;;;;;;;22.50;99.90;;;;;;5095873;28;20011;-63
2023/07/24 03:53:48;;;;;;;;;;;22.50;99.90;;;;;;5096121;28;20324;-64
2023/07/24 03:56:13;;;;;;;;;;;22.50;99.90;;;;;;5095658;28;19981;-62
2023/07/24 03:58:39;;;;;;;;;;;22.50;99.90;;;;;;5095726;28;19997;-63
2023/07/24 04:01:05;;;;;;;;;;;22.60;99.90;;;;;;5095762;28;19980;-63
2023/07/24 04:03:31;;;;;;;;;;;22.60;99.90;;;;;;5095309;28;20122;-65
2023/07/24 04:05:57;;;;;;;;;;;22.60;99.90;;;;;;5095563;28;20458;-64
2023/07/24 04:08:23;;;;;;;;;;;22.70;99.90;;;;;;5095520;28;20012;-63
2023/07/24 04:10:48;;;;;;;;;;;22.70;99.90;;;;;;5095281;28;20053;-64
2023/07/24 04:13:14;;;;;;;;;;;22.60;99.90;;;;;;5095533;28;19988;-63
2023/07/24 04:15:39;;;;;;;;;;;22.60;99.90;;;;;;5094983;28;19981;-63
2023/07/24 04:18:05;;;;;;;;;;;22.60;99.90;;;;;;5094684;28;19989;-64
2023/07/24 04:20:31;;;;;;;;;;;22.50;99.90;;;;;;5095177;28;19981;-64
2023/07/24 04:22:56;;;;;;;;;;;22.40;99.90;;;;;;5095293;28;20432;-63
2023/07/24 04:25:22;;;;;;;;;;;22.40;99.90;;;;;;5095197;28;19988;-63
2023/07/24 04:27:48;;;;;;;;;;;22.50;99.90;;;;;;5095017;28;19985;-64
2023/07/24 04:30:13;;;;;;;;;;;22.50;99.90;;;;;;5095191;28;19981;-63
2023/07/24 04:32:39;;;;;;;;;;;22.50;99.90;;;;;;5094874;28;20005;-63
2023/07/24 04:35:05;;;;;;;;;;;22.60;99.90;;;;;;5094863;28;20321;-64
2023/07/24 04:37:30;;;;;;;;;;;22.60;99.90;;;;;;5095063;28;20042;-64
2023/07/24 04:39:56;;;;;;;;;;;22.70;99.90;;;;;;5095028;28;20031;-63
2023/07/24 04:42:21;;;;;;;;;;;22.60;99.90;;;;;;5094780;28;20443;-63
2023/07/24 04:44:47;;;;;;;;;;;22.70;99.90;;;;;;5094928;28;20434;-63
2023/07/24 04:47:12;;;;;;;;;;;22.80;99.90;;;;;;5094594;28;19989;-64
2023/07/24 04:49:38;;;;;;;;;;;22.80;99.90;;;;;;5094659;28;19988;-63
2023/07/24 04:52:04;;;;;;;;;;;22.90;99.90;;;;;;5094532;28;20012;-65
2023/07/24 04:54:29;;;;;;;;;;;22.90;99.90;;;;;;5094736;28;19989;-62
2023/07/24 04:56:55;;;;;;;;;;;22.90;99.90;;;;;;5094620;28;19981;-63
2023/07/24 04:59:20;;;;;;;;;;;22.90;99.90;;;;;;5094442;28;20347;-63
2023/07/24 05:01:46;;;;;;;;;;;22.90;99.90;;;;;;5094278;28;20347;-64
2023/07/24 05:04:12;;;;;;;;;;;23.00;99.90;;;;;;5094569;28;19988;-63
2023/07/24 05:06:38;;;;;;;;;;;23.10;99.90;;;;;;5094370;28;20076;-64
2023/07/24 05:09:04;;;;;;;;;;;23.20;99.90;;;;;;5094652;28;19981;-63
2023/07/24 05:11:29;;;;;;;;;;;23.30;99.90;;;;;;5094264;28;20053;-64
2023/07/24 05:13:55;;;;;;;;;;;23.40;99.90;;;;;;5094207;28;20004;-64
2023/07/24 05:16:20;;;;;;;;;;;23.40;99.90;;;;;;5094162;28;19981;-63
2023/07/24 05:18:46;;;;;;;;;;;23.50;99.90;;;;;;5094315;28;19981;-63
2023/07/24 05:21:11;;;;;;;;;;;23.40;99.90;;;;;;5094235;28;20030;-63
2023/07/24 05:23:37;;;;;;;;;;;23.40;99.90;;;;;;5094222;28;20083;-63
2023/07/24 05:26:03;;;;;;;;;;;23.50;99.90;;;;;;5094120;28;19985;-63
2023/07/24 05:28:29;;;;;;;;;;;23.50;99.90;;;;;;5093602;28;19985;-63
2023/07/24 05:30:55;;;;;;;;;;;23.60;99.90;;;;;;5093676;28;20005;-63
2023/07/24 05:33:21;;;;;;;;;;;23.60;99.90;;;;;;5094114;28;19988;-62
2023/07/24 05:35:48;;;;;;;;;;;23.50;99.90;;;;;;5094022;28;20075;-64
2023/07/24 05:38:13;;;;;;;;;;;23.60;99.90;;;;;;5094159;28;20422;-63
2023/07/24 05:40:39;;;;;;;;;;;23.80;99.90;;;;;;5094003;28;20020;-63
2023/07/24 05:43:04;;;;;;;;;;;23.90;99.90;;;;;;5094007;28;20459;-63
2023/07/24 05:45:30;;;;;;;;;;;24.00;99.90;;;;;;5093585;28;20020;-64
2023/07/24 05:47:55;;;;;;;;;;;24.00;99.90;;;;;;5093777;28;20084;-63
2023/07/24 05:50:21;;;;;;;;;;;24.20;99.90;;;;;;5093781;28;19981;-63
2023/07/24 05:52:46;;;;;;;;;;;24.30;99.90;;;;;;5093779;28;19985;-64
2023/07/24 05:55:12;;;;;;;;;;;24.40;99.90;;;;;;5093654;28;19988;-62
2023/07/24 05:57:37;;;;;;;;;;;24.60;99.90;;;;;;5093569;28;20093;-64
2023/07/24 06:00:04;;;;;;;;;;;24.70;99.90;;;;;;5093629;28;20440;-65
2023/07/24 06:02:30;;;;;;;;;;;24.80;99.90;;;;;;5093590;28;20082;-64
2023/07/24 06:04:55;;;;;;;;;;;24.90;99.90;;;;;;5093730;28;20442;-63
2023/07/24 06:07:21;;;;;;;;;;;25.00;99.90;;;;;;5093723;28;20025;-63
2023/07/24 06:09:47;;;;;;;;;;;25.10;99.90;;;;;;5093479;28;19992;-63
2023/07/24 06:12:12;;;;;;;;;;;25.20;99.90;;;;;;5093819;28;20016;-64
2023/07/24 06:14:38;;;;;;;;;;;25.30;99.90;;;;;;5093345;28;20055;-65
2023/07/24 06:17:03;;;;;;;;;;;25.40;99.90;;;;;;5093517;28;19982;-63
2023/07/24 06:19:29;;;;;;;;;;;25.40;99.90;;;;;;5093536;28;20460;-63
2023/07/24 06:21:55;;;;;;;;;;;25.50;99.90;;;;;;5093585;28;19981;-65
2023/07/24 06:24:20;;;;;;;;;;;25.50;99.90;;;;;;5093500;28;20034;-63
2023/07/24 06:26:46;;;;;;;;;;;25.60;99.90;;;;;;5093404;28;19981;-65
2023/07/24 06:29:11;;;;;;;;;;;25.70;99.90;;;;;;5093241;28;19991;-63
2023/07/24 06:31:37;;;;;;;;;;;25.90;99.90;;;;;;5093331;28;20013;-63
2023/07/24 06:34:02;;;;;;;;;;;26.00;99.90;;;;;;5093342;28;20023;-64
2023/07/24 06:36:28;;;;;;;;;;;26.20;99.90;;;;;;5093508;28;19981;-63
2023/07/24 06:38:54;;;;;;;;;;;26.30;99.90;;;;;;5093686;28;19992;-62
2023/07/24 06:41:22;;;;;;;;;;;26.40;99.90;;;;;;5096373;28;20123;-63
2023/07/24 06:43:48;;;;;;;;;;;26.60;99.90;;;;;;5097237;28;19985;-63
2023/07/24 06:46:14;;;;;;;;;;;26.70;99.90;;;;;;5097031;28;20043;-62
2023/07/24 06:48:39;;;;;;;;;;;26.80;99.90;;;;;;5097283;28;19993;-63
2023/07/24 06:51:05;;;;;;;;;;;27.00;99.90;;;;;;5096948;28;20463;-64
2023/07/24 06:53:30;;;;;;;;;;;27.00;99.90;;;;;;5096969;28;20413;-62
2023/07/24 06:55:56;;;;;;;;;;;27.10;99.90;;;;;;5096912;28;20071;-62
2023/07/24 06:58:21;;;;;;;;;;;27.30;99.90;;;;;;5096511;28;20003;-62
2023/07/24 07:00:47;;;;;;;;;;;27.40;99.90;;;;;;5096937;28;20075;-64
2023/07/24 07:03:13;;;;;;;;;;;27.50;99.90;;;;;;5096814;28;19988;-63
2023/07/24 07:05:38;;;;;;;;;;;27.70;99.90;;;;;;5096640;28;19980;-64
2023/07/24 07:08:04;;;;;;;;;;;27.90;99.90;;;;;;5096721;28;19981;-64
2023/07/24 07:10:30;;;;;;;;;;;28.00;99.90;;;;;;5096834;28;19985;-63
2023/07/24 07:12:56;;;;;;;;;;;28.10;99.90;;;;;;5096345;28;20031;-64
2023/07/24 07:15:21;;;;;;;;;;;28.30;97.20;;;;;;5096869;28;20403;-62
2023/07/24 07:17:47;;;;;;;;;;;28.40;97.00;;;;;;5096593;28;20008;-64
2023/07/24 07:20:12;;;;;;;;;;;28.60;99.50;;;;;;5096489;28;19981;-63
2023/07/24 07:22:38;;;;;;;;;;;28.80;98.00;;;;;;5096354;28;19986;-63
2023/07/24 07:25:04;;;;;;;;;;;29.00;95.30;;;;;;5096436;28;19981;-64
2023/07/24 07:27:29;;;;;;;;;;;29.60;89.90;;;;;;5096104;28;20426;-63
2023/07/24 07:29:55;;;;;;;;;;;31.70;84.70;;;;;;5096169;28;20072;-63
2023/07/24 07:32:20;;;;;;;;;;;34.40;77.00;;;;;;5096283;28;20004;-62
2023/07/24 07:34:46;;;;;;;;;;;36.20;64.70;;;;;;5096245;28;20075;-64
2023/07/24 07:37:11;;;;;;;;;;;37.60;55.70;;;;;;5096043;28;19981;-64
2023/07/24 07:39:37;;;;;;;;;;;38.80;51.50;;;;;;5096206;28;19984;-62
2023/07/24 07:42:03;;;;;;;;;;;39.60;49.00;;;;;;5095813;28;20028;-64
2023/07/24 07:44:28;;;;;;;;;;;40.00;47.70;;;;;;5095662;28;20023;-64
2023/07/24 07:46:54;;;;;;;;;;;40.70;47.70;;;;;;5095948;28;19981;-63
2023/07/24 07:49:19;;;;;;;;;;;41.40;44.50;;;;;;5096033;28;19982;-63
2023/07/24 07:51:45;;;;;;;;;;;41.60;45.00;;;;;;5095546;28;20151;-63
2023/07/24 07:54:10;;;;;;;;;;;41.90;43.10;;;;;;5095754;28;20339;-64
2023/07/24 07:56:36;;;;;;;;;;;42.10;42.70;;;;;;5095546;28;19981;-64
2023/07/24 07:59:01;;;;;;;;;;;42.20;41.80;;;;;;5095689;28;20003;-62
2023/07/24 08:01:27;;;;;;;;;;;42.70;43.50;;;;;;5095886;28;19989;-63
2023/07/24 08:03:53;;;;;;;;;;;43.10;42.00;;;;;;5095646;28;20460;-63
2023/07/24 08:06:18;;;;;;;;;;;43.50;41.40;;;;;;5095614;28;19988;-64
2023/07/24 08:08:44;;;;;;;;;;;43.50;40.70;;;;;;5095505;28;20020;-64
2023/07/24 08:11:09;;;;;;;;;;;43.70;40.70;;;;;;5095434;28;20048;-64
2023/07/24 08:13:35;;;;;;;;;;;43.90;40.80;;;;;;5095366;28;20026;-65
2023/07/24 08:16:02;;;;;;;;;;;44.10;41.00;;;;;;5095356;28;19989;-64
2023/07/24 08:18:29;;;;;;;;;;;43.80;39.20;;;;;;5095295;28;20050;-63
2023/07/24 08:20:55;;;;;;;;;;;43.70;40.30;;;;;;5095322;28;20410;-64
2023/07/24 08:23:20;;;;;;;;;;;43.70;40.10;;;;;;5095225;28;19981;-62
2023/07/24 08:25:55;;;;;;;;;;;43.70;40.50;;;;;;5094931;28;20431;-62
2023/07/24 08:28:21;;;;;;;;;;;43.90;41.40;;;;;;5095131;28;20019;-63
2023/07/24 08:30:55;;;;;;;;;;;43.80;39.10;;;;;;5095233;28;20048;-63
2023/07/24 08:33:21;;;;;;;;;;;44.10;40.70;;;;;;5095002;28;20034;-64
2023/07/24 08:35:46;;;;;;;;;;;44.20;39.90;;;;;;5094965;28;19985;-64
2023/07/24 08:38:12;;;;;;;;;;;44.30;39.40;;;;;;5095153;28;20435;-65
2023/07/24 08:40:39;;;;;;;;;;;44.40;39.50;;;;;;5094732;28;20355;-62
2023/07/24 08:43:04;;;;;;;;;;;44.40;39.30;;;;;;5094859;28;20032;-64
2023/07/24 08:45:30;;;;;;;;;;;44.40;40.20;;;;;;5094575;28;20021;-62
2023/07/24 08:47:56;;;;;;;;;;;44.40;39.60;;;;;;5094744;28;20008;-65
2023/07/24 08:50:22;;;;;;;;;;;44.50;39.80;;;;;;5094750;28;20450;-63
2023/07/24 08:52:48;;;;;;;;;;;44.70;38.30;;;;;;5094595;28;20103;-64
2023/07/24 08:55:14;;;;;;;;;;;44.70;38.00;;;;;;5094378;28;20454;-64
2023/07/24 08:57:39;;;;;;;;;;;44.40;38.60;;;;;;5094447;28;20047;-64
2023/07/24 09:00:05;;;;;;;;;;;44.20;37.40;;;;;;5094628;28;19985;-62
2023/07/24 09:02:34;;;;;;;;;;;44.00;38.90;;;;;;5093672;28;20093;-64
2023/07/24 09:05:00;;;;;;;;;;;44.00;38.90;;;;;;5094428;28;19981;-62
2023/07/24 09:07:25;;;;;;;;;;;43.80;38.40;;;;;;5094459;28;19982;-65
2023/07/24 09:09:51;;;;;;;;;;;43.70;39.00;;;;;;5094346;28;20007;-64
2023/07/24 09:12:16;;;;;;;;;;;43.60;38.40;;;;;;5094202;28;20115;-63
2023/07/24 09:14:45;;;;;;;;;;;43.70;39.10;;;;;;5094332;28;20007;-62
2023/07/24 09:17:11;;;;;;;;;;;43.80;38.90;;;;;;5094139;28;19992;-63
2023/07/24 09:19:37;;;;;;;;;;;43.70;37.60;;;;;;5094577;28;20394;-63
2023/07/24 09:22:10;;;;;;;;;;;43.70;37.20;;;;;;5094184;28;19981;-63
2023/07/24 09:24:35;;;;;;;;;;;43.50;37.60;;;;;;5093842;28;19985;-64
2023/07/24 09:27:04;;;;;;;;;;;43.50;39.50;;;;;;5094045;28;19981;-64
2023/07/24 09:29:30;;;;;;;;;;;43.60;41.10;;;;;;5094260;28;19985;-64
2023/07/24 09:31:56;;;;;;;;;;;43.60;39.00;;;;;;5093931;28;20005;-64
2023/07/24 09:34:21;;;;;;;;;;;43.70;37.00;;;;;;5094094;28;19989;-65
2023/07/24 09:36:47;;;;;;;;;;;43.70;40.50;;;;;;5094129;28;19992;-62
2023/07/24 09:39:13;;;;;;;;;;;43.80;37.00;;;;;;5093935;28;19992;-63
2023/07/24 09:41:39;;;;;;;;;;;43.90;37.30;;;;;;5093983;28;19981;-64
2023/07/24 09:44:05;;;;;;;;;;;43.70;39.90;;;;;;5094180;28;20068;-63
2023/07/24 09:46:32;;;;;;;;;;;43.70;39.90;;;;;;5093629;28;20056;-64
2023/07/24 09:48:57;;;;;;;;;;;43.70;37.90;;;;;;5093847;28;20040;-64
2023/07/24 09:51:23;;;;;;;;;;;43.70;36.30;;;;;;5094009;28;20045;-64
2023/07/24 09:53:54;;;;;;;;;;;43.80;36.20;;;;;;5093566;28;20427;-63
2023/07/24 09:56:20;;;;;;;;;;;43.70;36.30;;;;;;5093783;28;20397;-65
2023/07/24 09:58:48;;;;;;;;;;;43.70;36.30;;;;;;5093734;28;20001;-64
2023/07/24 10:01:15;;;;;;;;;;;43.50;37.70;;;;;;5093805;28;20076;-64
2023/07/24 10:03:45;;;;;;;;;;;43.60;35.10;;;;;;5093992;28;19989;-64
2023/07/24 10:06:11;;;;;;;;;;;43.50;36.10;;;;;;5093613;28;20522;-64
2023/07/24 10:08:38;;;;;;;;;;;43.00;36.20;;;;;;5093444;28;20080;-63
2023/07/24 10:11:04;;;;;;;;;;;43.10;39.10;;;;;;5093561;28;20047;-64
2023/07/24 10:13:29;;;;;;;;;;;43.20;36.10;;;;;;5093922;28;20474;-63
2023/07/24 10:15:55;;;;;;;;;;;43.30;37.30;;;;;;5098038;28;19985;-64
2023/07/24 10:18:26;;;;;;;;;;;43.50;37.80;;;;;;5097509;28;19985;-63
2023/07/24 10:20:59;;;;;;;;;;;43.50;37.00;;;;;;5097393;28;20427;-65
2023/07/24 10:23:26;;;;;;;;;;;43.40;37.40;;;;;;5097519;28;19981;-62
2023/07/24 10:25:52;;;;;;;;;;;43.30;34.90;;;;;;5097472;28;19985;-63
2023/07/24 10:28:18;;;;;;;;;;;43.50;38.20;;;;;;5097580;28;20007;-62
2023/07/24 10:30:44;;;;;;;;;;;43.70;35.20;;;;;;5097352;28;20503;-63
2023/07/24 10:33:11;;;;;;;;;;;43.70;33.50;;;;;;5097329;28;20000;-63
2023/07/24 10:35:44;;;;;;;;;;;43.80;34.10;;;;;;5097170;28;20028;-63
2023/07/24 10:38:13;;;;;;;;;;;43.50;32.80;;;;;;5097226;28;20099;-65
2023/07/24 10:40:39;;;;;;;;;;;43.20;34.20;;;;;;5097236;28;19989;-64
2023/07/24 10:43:09;;;;;;;;;;;43.10;36.80;;;;;;5097434;28;19985;-64
2023/07/24 10:45:51;;;;;;;;;;;42.60;37.50;;;;;;5097078;28;20063;-63
2023/07/24 10:48:17;;;;;;;;;;;42.70;34.30;;;;;;5097178;28;19981;-62
2023/07/24 10:50:44;;;;;;;;;;;42.70;34.30;;;;;;5096751;28;19988;-64
2023/07/24 10:53:10;;;;;;;;;;;42.80;37.10;;;;;;5097141;28;19985;-63
2023/07/24 10:55:36;;;;;;;;;;;43.10;36.80;;;;;;5096906;28;20444;-64
2023/07/24 10:58:01;;;;;;;;;;;43.30;36.20;;;;;;5096920;28;19997;-62
2023/07/24 11:00:27;;;;;;;;;;;43.60;37.10;;;;;;5096734;28;19989;-63
2023/07/24 11:02:54;;;;;;;;;;;43.30;35.60;;;;;;5096818;28;19992;-63
2023/07/24 11:05:21;;;;;;;;;;;43.50;35.00;;;;;;5096599;28;20034;-64
2023/07/24 11:07:47;;;;;;;;;;;43.50;34.40;;;;;;5096658;28;19987;-64
2023/07/24 11:10:19;;;;;;;;;;;43.60;36.60;;;;;;5096875;28;20080;-65
2023/07/24 11:12:44;;;;;;;;;;;43.60;36.10;;;;;;5096914;28;20009;-64
2023/07/24 11:15:11;;;;;;;;;;;43.60;34.70;;;;;;5096514;28;20367;-63
2023/07/24 11:17:37;;;;;;;;;;;43.80;32.70;;;;;;5097047;28;20021;-64
2023/07/24 11:20:09;;;;;;;;;;;43.90;34.00;;;;;;5096304;28;19981;-64
2023/07/24 11:22:34;;;;;;;;;;;43.70;34.00;;;;;;5096418;28;20372;-63
2023/07/24 11:25:01;;;;;;;;;;;43.70;33.10;;;;;;5096371;28;19992;-63
2023/07/24 11:27:26;;;;;;;;;;;43.80;33.90;;;;;;5096055;28;19981;-64
2023/07/24 11:29:52;;;;;;;;;;;43.80;36.40;;;;;;5096521;28;20512;-62
2023/07/24 11:32:21;;;;;;;;;;;43.90;34.80;;;;;;5096113;28;20109;-64
2023/07/24 11:34:48;;;;;;;;;;;43.90;35.60;;;;;;5096292;28;19988;-65
2023/07/24 11:37:13;;;;;;;;;;;43.90;37.60;;;;;;5096352;28;19985;-64
2023/07/24 11:39:39;;;;;;;;;;;43.70;35.50;;;;;;5096327;28;19985;-62
2023/07/24 11:42:05;;;;;;;;;;;43.70;34.40;;;;;;5096387;28;19992;-62
2023/07/24 11:44:30;;;;;;;;;;;43.70;36.10;;;;;;5095638;28;20492;-64
2023/07/24 11:47:03;;;;;;;;;;;43.70;36.10;;;;;;5096306;28;19992;-62
2023/07/24 11:49:31;;;;;;;;;;;43.40;34.10;;;;;;5096025;28;19993;-64
2023/07/24 11:52:03;;;;;;;;;;;43.70;35.30;;;;;;5096026;28;20008;-62
2023/07/24 11:54:29;;;;;;;;;;;44.00;35.40;;;;;;5096027;28;19982;-63
2023/07/24 11:56:55;;;;;;;;;;;44.10;33.40;;;;;;5095796;28;20485;-63
2023/07/24 11:59:20;;;;;;;;;;;44.00;34.90;;;;;;5095687;28;19988;-62
2023/07/24 12:01:47;;;;;;;;;;;43.70;35.00;;;;;;5095831;28;20518;-63
2023/07/24 12:04:13;;;;;;;;;;;43.70;33.50;;;;;;5095817;28;19985;-62
2023/07/24 12:06:38;;;;;;;;;;;43.70;33.50;;;;;;5095505;28;20340;-64
2023/07/24 12:09:05;;;;;;;;;;;43.50;35.00;;;;;;5095690;28;19981;-63
2023/07/24 12:11:31;;;;;;;;;;;43.40;35.80;;;;;;5095503;28;20005;-64
2023/07/24 12:13:57;;;;;;;;;;;43.20;33.70;;;;;;5095357;28;20026;-62
2023/07/24 12:16:22;;;;;;;;;;;43.10;33.60;;;;;;5095685;28;19989;-63
2023/07/24 12:18:48;;;;;;;;;;;42.80;34.00;;;;;;5095209;28;19981;-63
2023/07/24 12:21:13;;;;;;;;;;;42.70;34.10;;;;;;5095182;28;19985;-62
2023/07/24 12:23:39;;;;;;;;;;;42.80;35.10;;;;;;5095362;28;20016;-62
2023/07/24 12:26:04;;;;;;;;;;;42.70;34.40;;;;;;5095189;28;19989;-62
2023/07/24 12:28:30;;;;;;;;;;;42.50;34.50;;;;;;5095260;28;19988;-63
2023/07/24 12:30:56;;;;;;;;;;;42.10;35.80;;;;;;5094989;28;20026;-64
2023/07/24 12:33:23;;;;;;;;;;;42.10;36.10;;;;;;5094976;28;19989;-63
2023/07/24 12:35:49;;;;;;;;;;;41.90;36.20;;;;;;5095317;28;20351;-62
2023/07/24 12:38:15;;;;;;;;;;;41.60;37.40;;;;;;5093979;28;20402;-65
2023/07/24 12:40:40;;;;;;;;;;;41.10;40.40;;;;;;5095232;28;19989;-63
2023/07/24 12:43:06;;;;;;;;;;;40.40;41.60;;;;;;5094891;28;19981;-64
2023/07/24 12:45:31;;;;;;;;;;;39.80;42.80;;;;;;5094494;28;20017;-64
2023/07/24 12:47:57;;;;;;;;;;;39.30;44.70;;;;;;5094605;28;20038;-62
2023/07/24 12:50:23;;;;;;;;;;;39.00;46.90;;;;;;5094854;28;19980;-64
2023/07/24 12:52:48;;;;;;;;;;;39.10;46.70;;;;;;5094583;28;20012;-65
2023/07/24 12:55:14;;;;;;;;;;;39.20;46.90;;;;;;5094826;28;19985;-64
2023/07/24 12:57:40;;;;;;;;;;;39.20;45.90;;;;;;5094575;28;20015;-64
2023/07/24 13:00:05;;;;;;;;;;;39.40;45.70;;;;;;5094629;28;19982;-65
2023/07/24 13:02:32;;;;;;;;;;;39.70;44.60;;;;;;5094194;28;19989;-62
2023/07/24 13:04:57;;;;;;;;;;;40.10;40.00;;;;;;5094489;28;19985;-63
2023/07/24 13:07:23;;;;;;;;;;;40.40;43.50;;;;;;5094397;28;19993;-64
2023/07/24 13:09:48;;;;;;;;;;;40.80;41.30;;;;;;5094275;28;19981;-63
2023/07/24 13:12:14;;;;;;;;;;;41.10;42.00;;;;;;5094306;28;20040;-64
2023/07/24 13:14:39;;;;;;;;;;;41.30;39.80;;;;;;5094466;28;19981;-63
2023/07/24 13:17:05;;;;;;;;;;;41.50;36.50;;;;;;5094006;28;20435;-63
2023/07/24 13:19:31;;;;;;;;;;;41.50;37.70;;;;;;5094433;28;19985;-62
2023/07/24 13:21:57;;;;;;;;;;;41.70;39.80;;;;;;5094343;28;19988;-65
2023/07/24 13:24:22;;;;;;;;;;;42.10;38.90;;;;;;5094155;28;19988;-62
2023/07/24 13:26:48;;;;;;;;;;;42.40;36.40;;;;;;5094419;28;20115;-63
2023/07/24 13:29:13;;;;;;;;;;;42.60;37.20;;;;;;5093858;28;20024;-64
2023/07/24 13:31:40;;;;;;;;;;;42.70;38.80;;;;;;5093993;28;20055;-62
2023/07/24 13:34:07;;;;;;;;;;;42.80;37.60;;;;;;5093968;28;20447;-64
2023/07/24 13:36:32;;;;;;;;;;;42.70;36.50;;;;;;5094081;28;19981;-63
2023/07/24 13:38:58;;;;;;;;;;;42.40;38.20;;;;;;5094003;28;20034;-63
2023/07/24 13:41:23;;;;;;;;;;;42.30;36.70;;;;;;5094091;28;19986;-63
2023/07/24 13:43:49;;;;;;;;;;;42.20;36.40;;;;;;5094190;28;20358;-64
2023/07/24 13:46:15;;;;;;;;;;;41.70;36.90;;;;;;5093622;28;20017;-63
2023/07/24 13:48:40;;;;;;;;;;;41.40;38.00;;;;;;5093443;28;20038;-64
2023/07/24 13:51:06;;;;;;;;;;;41.50;40.10;;;;;;5093899;28;20012;-62
2023/07/24 13:53:31;;;;;;;;;;;41.30;37.20;;;;;;5093918;28;19982;-63
2023/07/24 13:55:57;;;;;;;;;;;41.00;38.20;;;;;;5093707;28;19991;-64
2023/07/24 13:58:22;;;;;;;;;;;41.00;39.50;;;;;;5093621;28;20009;-64
2023/07/24 14:00:48;;;;;;;;;;;40.70;38.50;;;;;;5093644;28;19982;-64
2023/07/24 14:03:14;;;;;;;;;;;40.70;40.30;;;;;;5094023;28;20030;-64
2023/07/24 14:05:40;;;;;;;;;;;40.50;40.40;;;;;;5093915;28;19992;-62
2023/07/24 14:08:06;;;;;;;;;;;40.60;39.60;;;;;;5093686;28;20067;-64